Time;durP1;ratioP1;P1;durP2;ratioP2;P2;SDS_P1;SDS_P2;PMS_P1;PMS_P2;Temp;Humidity;BMP_temperature;BMP_pressure;BME280_temperature;BME280_humidity;BME280_pressure;Samples;Min_cycle;Max_cycle;Signal;HPM_P1;HPM_P2
2022/10/18 00:01:47;;;;;;;15.70;6.32;;;;;;;15.30;100.00;102281.22;6221218;28;20053;-76
2022/10/18 00:04:48;;;;;;;16.67;6.95;;;;;;;15.29;100.00;102276.84;6221482;28;20516;-76
2022/10/18 00:07:50;;;;;;;14.35;7.47;;;;;;;15.25;100.00;102278.78;6221569;28;20050;-76
2022/10/18 00:10:51;;;;;;;17.45;8.15;;;;;;;15.21;100.00;102269.28;6221216;28;20049;-76
2022/10/18 00:13:53;;;;;;;14.45;6.93;;;;;;;15.17;100.00;102276.53;6222883;28;20049;-76
2022/10/18 00:16:55;;;;;;;14.05;6.80;;;;;;;15.16;100.00;102272.13;6226353;28;20394;-76
2022/10/18 00:19:57;;;;;;;13.13;7.38;;;;;;;15.18;100.00;102278.25;6225654;28;20502;-76
2022/10/18 00:22:58;;;;;;;17.67;9.40;;;;;;;15.20;100.00;102276.38;6225938;28;20061;-76
2022/10/18 00:26:05;;;;;;;19.67;8.57;;;;;;;15.22;100.00;102277.16;6225704;28;20045;-76
2022/10/18 00:29:06;;;;;;;18.92;9.02;;;;;;;15.25;100.00;102285.88;6226141;28;20046;-76
2022/10/18 00:32:10;;;;;;;15.77;8.13;;;;;;;15.23;100.00;102278.03;6225364;28;20541;-76
2022/10/18 00:35:12;;;;;;;19.40;9.38;;;;;;;15.22;100.00;102284.25;6225457;28;20061;-76
2022/10/18 00:38:13;;;;;;;14.75;7.47;;;;;;;15.21;100.00;102291.34;6225858;28;20054;-76
2022/10/18 00:41:22;;;;;;;17.80;8.27;;;;;;;15.20;100.00;102289.59;6225162;28;20046;-76
2022/10/18 00:45:12;;;;;;;20.13;8.87;;;;;;;15.18;100.00;102294.13;6225315;28;20050;-76
2022/10/18 00:48:18;;;;;;;15.10;7.72;;;;;;;15.18;100.00;102309.16;6174090;28;20717;-76
2022/10/18 00:51:21;;;;;;;19.10;8.65;;;;;;;15.14;100.00;102303.16;6173902;28;20043;-76
2022/10/18 00:54:23;;;;;;;15.20;8.05;;;;;;;15.17;100.00;102307.44;6173529;28;20502;-76
2022/10/18 00:57:25;;;;;;;15.85;8.80;;;;;;;15.17;100.00;102303.00;6220200;28;20065;-76
2022/10/18 01:00:27;;;;;;;19.45;8.45;;;;;;;15.14;100.00;102302.28;6224670;28;20081;-76
2022/10/18 01:03:30;;;;;;;14.85;7.90;;;;;;;15.15;100.00;102299.56;6225255;28;20050;-76
2022/10/18 01:06:32;;;;;;;21.23;10.00;;;;;;;15.15;100.00;102296.06;6224674;28;20453;-76
2022/10/18 01:09:39;;;;;;;21.63;9.88;;;;;;;15.17;100.00;102294.19;6224982;28;20501;-76
2022/10/18 01:12:53;;;;;;;17.73;10.02;;;;;;;15.14;100.00;102292.56;6232982;28;20053;-76
2022/10/18 01:16:00;;;;;;;16.17;8.57;;;;;;;15.12;100.00;102298.84;6249021;28;20492;-76
2022/10/18 01:19:10;;;;;;;20.20;9.00;;;;;;;15.13;100.00;102295.28;6249497;28;20042;-76
2022/10/18 01:22:18;;;;;;;16.63;8.52;;;;;;;15.12;100.00;102290.91;6249057;28;20049;-76
2022/10/18 01:25:32;;;;;;;19.10;9.35;;;;;;;15.11;100.00;102292.69;6248637;28;20398;-76
2022/10/18 01:28:49;;;;;;;17.98;8.98;;;;;;;15.09;100.00;102283.97;6249230;28;20052;-76
2022/10/18 01:31:58;;;;;;;14.40;7.05;;;;;;;15.06;100.00;102283.25;6242026;28;20429;-76
2022/10/18 01:35:04;;;;;;;17.40;8.43;;;;;;;15.03;100.00;102278.09;6248759;28;20053;-76
2022/10/18 01:38:11;;;;;;;16.65;9.05;;;;;;;15.04;100.00;102278.03;6249044;28;20057;-76
2022/10/18 01:41:13;;;;;;;22.10;10.70;;;;;;;15.04;100.00;102286.00;6248534;28;20497;-76
2022/10/18 01:44:20;;;;;;;15.77;7.70;;;;;;;15.05;100.00;102282.41;6248570;28;20053;-76
2022/10/18 01:47:23;;;;;;;19.90;9.85;;;;;;;15.03;100.00;102283.41;6248840;28;20045;-76
2022/10/18 01:50:29;;;;;;;17.92;9.55;;;;;;;15.00;100.00;102275.63;6248408;28;20048;-76
2022/10/18 01:53:33;;;;;;;19.27;9.30;;;;;;;14.99;100.00;102272.13;6248652;28;20053;-76
2022/10/18 01:56:42;;;;;;;17.80;8.35;;;;;;;15.00;100.00;102276.47;6248116;28;20053;-76
2022/10/18 01:59:51;;;;;;;15.95;7.80;;;;;;;14.93;100.00;102267.94;6301454;23;20045;-77
2022/10/18 02:03:00;;;;;;;17.30;7.80;;;;;;;14.89;100.00;102266.38;6250048;28;20049;-77
2022/10/18 02:06:08;;;;;;;21.73;9.57;;;;;;;14.84;100.00;102264.88;6249714;28;20527;-78
2022/10/18 02:09:13;;;;;;;18.25;9.38;;;;;;;14.80;100.00;102247.41;6250887;28;20041;-77
2022/10/18 02:12:16;;;;;;;27.67;9.98;;;;;;;14.82;100.00;102259.66;6251767;28;20045;-77
2022/10/18 02:15:22;;;;;;;20.02;10.25;;;;;;;14.81;100.00;102265.03;6251650;28;20528;-77
2022/10/18 02:18:30;;;;;;;18.75;9.98;;;;;;;14.78;100.00;102252.81;6252692;28;20404;-77
2022/10/18 02:21:32;;;;;;;18.35;9.55;;;;;;;14.75;100.00;102262.66;6251948;28;20049;-78
2022/10/18 02:24:37;;;;;;;19.40;10.02;;;;;;;14.69;100.00;102261.16;6251225;28;20049;-77
2022/10/18 02:27:39;;;;;;;18.70;9.73;;;;;;;14.64;100.00;102248.16;6252229;28;20052;-77
2022/10/18 02:30:47;;;;;;;17.48;7.80;;;;;;;14.61;100.00;102253.56;6251567;28;20041;-77
2022/10/18 02:33:56;;;;;;;21.02;9.13;;;;;;;14.59;100.00;102246.66;6251751;28;20053;-80
2022/10/18 02:36:59;;;;;;;17.40;8.30;;;;;;;14.55;100.00;102250.38;6251714;28;20053;-78
2022/10/18 02:40:02;;;;;;;17.80;9.07;;;;;;;14.52;100.00;102250.50;6250882;28;20045;-77
2022/10/18 02:43:06;;;;;;;21.13;9.93;;;;;;;14.51;100.00;102243.50;6251658;28;20056;-77
2022/10/18 02:46:07;;;;;;;21.10;9.43;;;;;;;14.46;100.00;102244.53;6251324;28;20056;-78
2022/10/18 02:49:10;;;;;;;19.77;8.02;;;;;;;14.45;100.00;102244.59;6251387;28;20049;-77
2022/10/18 02:52:11;;;;;;;19.40;8.48;;;;;;;14.42;100.00;102245.59;6249892;28;20064;-77
2022/10/18 02:55:13;;;;;;;18.38;8.77;;;;;;;14.38;100.00;102246.66;6250781;28;20397;-80
2022/10/18 02:58:14;;;;;;;19.63;9.05;;;;;;;14.35;100.00;102249.47;6250805;28;20053;-77
2022/10/18 03:01:16;;;;;;;15.43;9.10;;;;;;;14.32;100.00;102252.22;6250996;28;20049;-77
2022/10/18 03:04:19;;;;;;;20.92;9.70;;;;;;;14.27;100.00;102250.72;6250423;28;20049;-78
2022/10/18 03:07:20;;;;;;;17.98;9.13;;;;;;;14.24;100.00;102250.84;6251739;28;20052;-79
2022/10/18 03:10:22;;;;;;;16.85;8.50;;;;;;;14.18;100.00;102247.56;6251076;28;20060;-80
2022/10/18 03:13:23;;;;;;;19.60;9.18;;;;;;;14.17;100.00;102240.56;6251856;28;20058;-77
2022/10/18 03:16:25;;;;;;;17.98;8.55;;;;;;;14.13;100.00;102238.13;6251464;28;20053;-80
2022/10/18 03:19:28;;;;;;;19.50;9.07;;;;;;;14.13;100.00;102246.06;6251064;28;20049;-80
2022/10/18 03:22:29;;;;;;;16.23;7.88;;;;;;;14.08;100.00;102237.44;6251134;28;20054;-80
2022/10/18 03:25:30;;;;;;;14.60;7.35;;;;;;;14.07;100.00;102241.88;6251930;28;20045;-80
2022/10/18 03:28:32;;;;;;;16.08;8.63;;;;;;;14.05;100.00;102229.66;6251358;28;20057;-79
2022/10/18 03:31:33;;;;;;;18.17;9.15;;;;;;;14.02;100.00;102225.34;6252137;28;20050;-80
2022/10/18 03:34:36;;;;;;;14.88;7.55;;;;;;;14.02;100.00;102229.78;6251206;28;20049;-80
2022/10/18 03:37:37;;;;;;;20.42;7.93;;;;;;;14.00;100.00;102231.66;6251300;28;20053;-80
2022/10/18 03:40:39;;;;;;;15.68;8.23;;;;;;;13.98;100.00;102231.69;6250885;28;20042;-78
2022/10/18 03:43:40;;;;;;;18.88;9.48;;;;;;;13.94;100.00;102225.72;6248357;28;20061;-78
2022/10/18 03:46:42;;;;;;;15.75;7.97;;;;;;;13.92;100.00;102231.97;6248835;28;20064;-78
2022/10/18 03:49:45;;;;;;;16.85;8.38;;;;;;;13.92;100.00;102216.97;6250769;28;20520;-80
2022/10/18 03:52:46;;;;;;;18.75;7.97;;;;;;;13.91;100.00;102222.34;6254989;28;20061;-80
2022/10/18 03:55:51;;;;;;;16.75;7.93;;;;;;;13.89;100.00;102230.31;6257879;28;20068;-80
2022/10/18 03:58:52;;;;;;;15.55;7.90;;;;;;;13.86;100.00;102225.19;6257041;28;20050;-80
2022/10/18 04:01:54;;;;;;;20.75;9.32;;;;;;;13.80;100.00;102225.44;6255409;28;20052;-80
2022/10/18 04:04:57;;;;;;;19.70;8.07;;;;;;;13.78;100.00;102227.28;6255970;28;20049;-80
2022/10/18 04:07:58;;;;;;;17.08;8.55;;;;;;;13.78;100.00;102234.38;6256365;28;20055;-80
2022/10/18 04:11:07;;;;;;;17.13;8.98;;;;;;;13.74;100.00;102230.13;6256589;28;20045;-80
2022/10/18 04:14:08;;;;;;;16.00;8.30;;;;;;;13.74;100.00;102231.00;6256270;28;20060;-80
2022/10/18 04:17:09;;;;;;;19.92;9.13;;;;;;;13.74;100.00;102232.78;6255403;28;20046;-80
2022/10/18 04:20:13;;;;;;;16.15;8.07;;;;;;;13.74;100.00;102228.34;6255107;28;20053;-79
2022/10/18 04:23:14;;;;;;;20.00;8.70;;;;;;;13.74;100.00;102233.63;6256427;28;20049;-79
2022/10/18 04:26:16;;;;;;;17.73;8.75;;;;;;;13.75;100.00;102235.34;6255827;28;20050;-80
2022/10/18 04:29:18;;;;;;;17.35;7.75;;;;;;;13.75;100.00;102247.69;6256216;28;20056;-79
2022/10/18 04:32:19;;;;;;;29.42;8.95;;;;;;;13.80;100.00;102257.13;6255398;28;20057;-79
2022/10/18 04:35:24;;;;;;;22.58;9.48;;;;;;;13.84;100.00;102244.66;6254483;28;20060;-79
2022/10/18 04:38:26;;;;;;;27.38;10.15;;;;;;;13.87;100.00;102237.47;6255767;28;20520;-79
2022/10/18 04:41:27;;;;;;;23.15;10.25;;;;;;;13.87;100.00;102242.75;6254627;28;20046;-79
2022/10/18 04:44:29;;;;;;;26.15;11.60;;;;;;;13.89;100.00;102242.69;6255017;28;20052;-79
2022/10/18 04:47:30;;;;;;;34.20;10.95;;;;;;;13.88;100.00;102246.25;6254436;28;20559;-80
2022/10/18 04:50:33;;;;;;;35.47;12.13;;;;;;;13.90;100.00;102245.28;6255412;28;20046;-79
2022/10/18 04:53:34;;;;;;;25.80;10.25;;;;;;;13.90;100.00;102240.00;6255637;28;20501;-80
2022/10/18 04:56:36;;;;;;;32.17;11.55;;;;;;;13.93;100.00;102233.69;6255905;28;20049;-80
2022/10/18 04:59:37;;;;;;;28.48;10.93;;;;;;;13.95;100.00;102242.44;6255126;28;20057;-79
2022/10/18 05:02:39;;;;;;;24.25;9.00;;;;;;;13.95;100.00;102235.34;6254541;28;20045;-79
2022/10/18 05:05:42;;;;;;;24.02;9.23;;;;;;;13.96;100.00;102231.78;6254841;28;20053;-79
2022/10/18 05:08:43;;;;;;;22.58;8.82;;;;;;;13.98;100.00;102230.84;6255860;28;20542;-79
2022/10/18 05:11:44;;;;;;;17.17;8.77;;;;;;;13.96;100.00;102242.34;6254080;28;20048;-80
2022/10/18 05:14:46;;;;;;;18.02;8.43;;;;;;;13.95;100.00;102242.44;6254300;28;20049;-79
2022/10/18 05:17:47;;;;;;;21.83;8.88;;;;;;;13.95;100.00;102245.94;6254851;28;20048;-79
2022/10/18 05:20:50;;;;;;;19.95;8.43;;;;;;;13.95;100.00;102242.44;6254583;28;20493;-79
2022/10/18 05:23:55;;;;;;;22.52;9.02;;;;;;;13.95;100.00;102240.66;6254848;28;20052;-79
2022/10/18 05:26:57;;;;;;;18.92;8.60;;;;;;;13.91;100.00;102246.97;6254647;28;20049;-79
2022/10/18 05:29:58;;;;;;;18.88;8.57;;;;;;;13.91;100.00;102256.69;6254093;28;20046;-80
2022/10/18 05:32:59;;;;;;;19.02;8.07;;;;;;;13.91;100.00;102259.34;6254189;28;20513;-79
2022/10/18 05:36:03;;;;;;;19.17;8.13;;;;;;;13.92;100.00;102258.41;6253669;28;20049;-79
2022/10/18 05:39:05;;;;;;;23.23;9.05;;;;;;;13.94;100.00;102248.63;6254563;28;20053;-79
2022/10/18 05:42:07;;;;;;;24.63;9.68;;;;;;;13.94;100.00;102243.34;6254503;28;20045;-80
2022/10/18 05:45:09;;;;;;;17.90;8.75;;;;;;;13.93;100.00;102247.75;6253573;28;20053;-79
2022/10/18 05:48:10;;;;;;;23.95;9.27;;;;;;;13.93;100.00;102241.63;6254574;28;20052;-78
2022/10/18 05:51:13;;;;;;;18.63;7.00;;;;;;;13.96;100.00;102249.44;6254294;28;20041;-79
2022/10/18 05:54:15;;;;;;;23.65;8.07;;;;;;;13.99;100.00;102259.00;6254693;28;20046;-80
2022/10/18 05:57:17;;;;;;;24.05;8.95;;;;;;;13.98;100.00;102252.84;6256195;28;20042;-79
2022/10/18 06:00:18;;;;;;;20.75;9.57;;;;;;;13.98;100.00;102247.56;6274965;28;20049;-79
2022/10/18 06:03:20;;;;;;;27.40;10.35;;;;;;;14.00;100.00;102252.81;6273969;28;20045;-79
2022/10/18 06:06:23;;;;;;;24.77;7.78;;;;;;;14.01;100.00;102257.16;6252056;28;20045;-79
2022/10/18 06:09:24;;;;;;;30.98;9.70;;;;;;;14.00;100.00;102266.88;6253233;28;20543;-80
2022/10/18 06:12:26;;;;;;;30.65;11.90;;;;;;;14.00;100.00;102260.72;6263611;28;20057;-79
2022/10/18 06:15:27;;;;;;;29.27;10.82;;;;;;;13.98;100.00;102271.34;6257894;28;20056;-79
2022/10/18 06:18:29;;;;;;;34.53;11.77;;;;;;;13.96;100.00;102276.72;6251638;28;20061;-79
2022/10/18 06:21:32;;;;;;;27.17;11.18;;;;;;;13.98;100.00;102270.50;6250229;28;20045;-79
2022/10/18 06:24:33;;;;;;;31.50;10.90;;;;;;;13.98;100.00;102259.91;6249791;28;20446;-79
2022/10/18 06:27:34;;;;;;;31.98;11.63;;;;;;;13.96;100.00;102271.44;6249488;28;20060;-78
2022/10/18 06:30:36;;;;;;;27.52;11.38;;;;;;;13.97;100.00;102280.22;6249353;28;20416;-79
2022/10/18 06:33:37;;;;;;;26.02;10.63;;;;;;;13.98;100.00;102294.28;6249905;28;20056;-79
2022/10/18 06:36:40;;;;;;;30.10;9.45;;;;;;;13.99;100.00;102296.88;6249197;28;20420;-79
2022/10/18 06:39:42;;;;;;;28.65;10.27;;;;;;;13.98;100.00;102289.84;6248930;28;20049;-79
2022/10/18 06:42:44;;;;;;;42.45;11.68;;;;;;;13.98;100.00;102295.13;6248849;28;20061;-80
2022/10/18 06:45:46;;;;;;;26.25;10.10;;;;;;;14.00;100.00;102293.31;6248864;28;20615;-80
2022/10/18 06:48:47;;;;;;;28.83;9.52;;;;;;;14.02;100.00;102306.44;6248805;28;20050;-80
2022/10/18 06:51:50;;;;;;;31.48;11.93;;;;;;;14.03;100.00;102306.38;6247954;28;20056;-80
2022/10/18 06:54:52;;;;;;;26.30;11.07;;;;;;;14.03;100.00;102294.94;6248476;28;20050;-79
2022/10/18 06:57:54;;;;;;;33.40;10.93;;;;;;;14.05;100.00;102303.69;6248489;28;20045;-79
2022/10/18 07:00:55;;;;;;;24.92;8.80;;;;;;;14.07;100.00;102309.75;6247904;28;20428;-79
2022/10/18 07:03:57;;;;;;;31.50;12.07;;;;;;;14.07;100.00;102317.69;6248206;28;20049;-79
2022/10/18 07:07:00;;;;;;;30.92;12.43;;;;;;;14.04;100.00;102321.34;6248693;28;20523;-79
2022/10/18 07:10:01;;;;;;;33.97;12.52;;;;;;;14.04;100.00;102328.41;6248186;28;20086;-79
2022/10/18 07:13:02;;;;;;;29.52;10.75;;;;;;;14.05;100.00;102315.13;6249274;28;20046;-80
2022/10/18 07:16:06;;;;;;;33.00;12.40;;;;;;;14.00;100.00;102318.88;6247783;28;20060;-79
2022/10/18 07:19:08;;;;;;;23.15;9.52;;;;;;;14.05;100.00;102309.81;6248012;28;20053;-79
2022/10/18 07:22:10;;;;;;;30.90;10.65;;;;;;;14.09;100.00;102316.72;6241225;28;20042;-80
2022/10/18 07:25:12;;;;;;;32.70;11.00;;;;;;;14.14;100.00;102319.16;6237326;28;20050;-79
2022/10/18 07:28:13;;;;;;;31.85;9.00;;;;;;;14.18;100.00;102313.66;6247884;28;20052;-79
2022/10/18 07:31:15;;;;;;;30.25;10.52;;;;;;;14.21;100.00;102318.78;6247197;28;20053;-78
2022/10/18 07:34:17;;;;;;;37.00;11.85;;;;;;;14.20;100.00;102325.03;6246858;28;20494;-79
2022/10/18 07:37:19;;;;;;;35.38;11.55;;;;;;;14.26;100.00;102328.31;6247044;28;20060;-79
2022/10/18 07:40:21;;;;;;;34.42;11.65;;;;;;;14.27;100.00;102325.63;6247525;28;20068;-77
2022/10/18 07:43:22;;;;;;;40.95;13.18;;;;;;;14.26;100.00;102317.75;6253590;28;20479;-79
2022/10/18 07:46:24;;;;;;;39.80;10.23;;;;;;;14.29;100.00;102328.19;6250102;28;20053;-80
2022/10/18 07:49:25;;;;;;;44.47;12.95;;;;;;;14.30;100.00;102329.91;6248076;28;20057;-80
2022/10/18 07:52:28;;;;;;;38.72;12.73;;;;;;;14.32;100.00;102328.06;6247642;28;20424;-79
2022/10/18 07:55:30;;;;;;;29.15;11.88;;;;;;;14.29;100.00;102336.97;6247718;28;20053;-79
2022/10/18 07:58:32;;;;;;;35.42;12.45;;;;;;;14.30;100.00;102343.13;6269611;22;20045;-75
2022/10/18 08:01:34;;;;;;;35.72;12.52;;;;;;;14.28;100.00;102339.72;6245837;28;20045;-74
2022/10/18 08:04:35;;;;;;;34.78;12.60;;;;;;;14.25;100.00;102342.47;6245595;28;20416;-75
2022/10/18 08:07:38;;;;;;;33.97;12.68;;;;;;;14.24;100.00;102336.31;6246328;28;20049;-75
2022/10/18 08:10:39;;;;;;;26.40;10.75;;;;;;;14.26;100.00;102333.59;6245583;28;20046;-75
2022/10/18 08:13:41;;;;;;;38.22;13.23;;;;;;;14.27;100.00;102348.56;6245937;28;20065;-75
2022/10/18 08:16:42;;;;;;;38.45;13.25;;;;;;;14.29;100.00;102342.28;6245924;28;20485;-74
2022/10/18 08:19:44;;;;;;;31.20;11.93;;;;;;;14.13;100.00;102346.53;6245960;28;20385;-75
2022/10/18 08:22:49;;;;;;;32.08;13.35;;;;;;;14.13;100.00;102349.16;6245871;28;20042;-75
2022/10/18 08:25:51;;;;;;;34.50;12.63;;;;;;;14.15;100.00;102357.88;6245714;28;20057;-75
2022/10/18 08:28:53;;;;;;;34.22;11.23;;;;;;;14.18;100.00;102355.97;6246102;28;20050;-76
2022/10/18 08:31:54;;;;;;;30.08;10.60;;;;;;;14.25;100.00;102359.19;6245299;28;20052;-75
2022/10/18 08:34:56;;;;;;;30.63;10.88;;;;;;;14.21;100.00;102371.69;6247527;28;20049;-75
2022/10/18 08:37:58;;;;;;;26.38;9.13;;;;;;;14.23;100.00;102368.13;6250118;28;20050;-74
2022/10/18 08:41:02;;;;;;;29.50;10.32;;;;;;;14.21;100.00;102353.16;6249900;28;20421;-75
2022/10/18 08:44:08;;;;;;;21.73;8.38;;;;;;;14.29;100.00;102360.78;6249692;28;20049;-75
2022/10/18 08:47:13;;;;;;;27.52;8.52;;;;;;;14.27;100.00;102378.53;6250170;28;20440;-75
2022/10/18 08:50:18;;;;;;;22.40;8.95;;;;;;;14.28;100.00;102382.88;6249503;28;20041;-75
2022/10/18 08:53:28;;;;;;;20.23;8.23;;;;;;;14.25;100.00;102383.00;6250293;28;20056;-75
2022/10/18 08:56:31;;;;;;;26.05;9.07;;;;;;;14.23;100.00;102378.72;6249428;28;20053;-75
2022/10/18 08:59:38;;;;;;;24.13;8.88;;;;;;;14.19;100.00;102391.19;6249889;28;20046;-75
2022/10/18 09:02:55;;;;;;;23.15;8.40;;;;;;;14.15;100.00;102390.47;6249410;28;20520;-75
2022/10/18 09:06:09;;;;;;;19.80;7.95;;;;;;;14.16;100.00;102392.16;6249594;28;20500;-75
2022/10/18 09:09:33;;;;;;;27.70;10.90;;;;;;;14.12;100.00;102400.31;6249481;28;20059;-75
2022/10/18 09:12:55;;;;;;;17.55;7.78;;;;;;;13.91;100.00;102394.13;6249155;28;20053;-74
2022/10/18 09:16:00;;;;;;;19.23;8.98;;;;;;;13.94;100.00;102394.88;6249276;28;20052;-75
2022/10/18 09:19:14;;;;;;;23.15;9.35;;;;;;;13.83;100.00;102397.06;6249584;28;20057;-75
2022/10/18 09:22:18;;;;;;;21.75;8.63;;;;;;;13.87;100.00;102392.53;6249215;28;20045;-75
2022/10/18 09:25:23;;;;;;;21.75;8.02;;;;;;;13.88;100.00;102399.53;6248970;28;20069;-75
2022/10/18 09:28:33;;;;;;;20.85;8.73;;;;;;;13.85;100.00;102405.81;6249500;28;20049;-74
2022/10/18 09:31:45;;;;;;;16.60;7.38;;;;;;;13.88;100.00;102402.19;6248944;28;20542;-74
2022/10/18 09:34:51;;;;;;;20.83;8.23;;;;;;;13.99;100.00;102399.09;6249241;28;20417;-75
2022/10/18 09:37:59;;;;;;;15.45;6.45;;;;;;;14.09;100.00;102411.03;6248687;28;20049;-74
2022/10/18 09:41:08;;;;;;;19.05;8.05;;;;;;;14.07;100.00;102399.63;6248459;28;20050;-74
2022/10/18 09:44:15;;;;;;;18.27;6.50;;;;;;;14.01;100.00;102407.81;6247977;28;20573;-75
2022/10/18 09:47:22;;;;;;;15.20;6.25;;;;;;;13.97;100.00;102404.44;6248714;28;20056;-75
2022/10/18 09:50:28;;;;;;;14.70;5.90;;;;;;;14.02;100.00;102396.31;6248627;28;20517;-75
2022/10/18 09:53:36;;;;;;;11.77;5.57;;;;;;;14.08;100.00;102393.41;6248419;28;20059;-74
2022/10/18 09:56:45;;;;;;;15.63;6.65;;;;;;;14.02;100.00;102391.91;6248001;28;20052;-74
2022/10/18 09:59:48;;;;;;;16.77;7.05;;;;;;;13.94;100.00;102399.28;6248114;28;20045;-74
2022/10/18 10:02:49;;;;;;;16.83;7.55;;;;;;;13.94;100.00;102401.91;6248412;28;20049;-74
2022/10/18 10:06:03;;;;;;;17.17;7.03;;;;;;;14.04;100.00;102391.84;6247884;28;20045;-74
2022/10/18 10:09:07;;;;;;;17.60;8.43;;;;;;;14.07;100.00;102394.34;6248108;28;20061;-74
2022/10/18 10:12:26;;;;;;;21.70;7.55;;;;;;;14.19;100.00;102384.13;6247930;28;20049;-74
2022/10/18 10:15:27;;;;;;;17.05;7.60;;;;;;;14.23;100.00;102395.44;6247484;28;20072;-74
2022/10/18 10:18:31;;;;;;;15.00;8.18;;;;;;;14.30;100.00;102390.72;6247951;28;20050;-75
2022/10/18 10:21:32;;;;;;;19.92;8.13;;;;;;;14.34;100.00;102398.47;6247533;28;20176;-76
2022/10/18 10:24:48;;;;;;;17.98;8.73;;;;;;;14.38;100.00;102399.22;6247610;28;20053;-75
2022/10/18 10:27:51;;;;;;;24.33;10.32;;;;;;;14.43;100.00;102405.16;6247603;28;20049;-75
2022/10/18 10:30:52;;;;;;;23.48;10.75;;;;;;;14.47;100.00;102404.97;6247696;28;20050;-75
2022/10/18 10:34:02;;;;;;;20.75;9.52;;;;;;;14.60;100.00;102401.81;6266771;28;20052;-74
2022/10/18 10:37:04;;;;;;;30.70;11.60;;;;;;;14.68;100.00;102391.78;6272740;28;20492;-74
2022/10/18 10:40:12;;;;;;;21.38;10.05;;;;;;;14.78;100.00;102393.06;6272103;28;20488;-75
2022/10/18 10:43:19;;;;;;;23.42;9.82;;;;;;;14.86;100.00;102390.94;6272275;28;20045;-75
2022/10/18 10:46:22;;;;;;;21.38;9.95;;;;;;;14.93;100.00;102387.06;6271851;28;20053;-75
2022/10/18 10:49:25;;;;;;;27.15;10.80;;;;;;;15.09;100.00;102395.19;6272138;28;20045;-75
2022/10/18 10:52:28;;;;;;;26.25;10.43;;;;;;;15.20;100.00;102399.97;6271538;28;20420;-75
2022/10/18 10:55:34;;;;;;;24.15;9.18;;;;;;;15.25;100.00;102399.78;6271267;28;20053;-74
2022/10/18 10:58:40;;;;;;;16.70;7.20;;;;;;;15.35;100.00;102385.16;6271560;28;20422;-74
2022/10/18 11:01:42;;;;;;;21.65;7.82;;;;;;;15.50;100.00;102383.59;6270924;28;20049;-74
2022/10/18 11:04:45;;;;;;;22.33;7.22;;;;;;;15.54;100.00;102386.03;6270562;28;20053;-75
2022/10/18 11:07:48;;;;;;;14.13;5.63;;;;;;;15.68;100.00;102390.69;6270853;28;20056;-75
2022/10/18 11:11:04;;;;;;;14.80;5.63;;;;;;;15.85;100.00;102393.38;6257512;28;20052;-76
2022/10/18 11:14:17;;;;;;;10.27;4.55;;;;;;;15.99;100.00;102387.41;6245987;28;20045;-76
2022/10/18 11:17:26;;;;;;;10.27;4.80;;;;;;;16.18;100.00;102387.31;6246924;28;20056;-76
2022/10/18 11:20:32;;;;;;;11.80;5.45;;;;;;;16.28;100.00;102393.88;6246448;28;20046;-76
2022/10/18 11:23:36;;;;;;;8.88;4.32;;;;;;;16.42;100.00;102383.41;6246726;28;20046;-75
2022/10/18 11:26:47;;;;;;;9.38;4.78;;;;;;;16.61;100.00;102387.75;6246123;28;20049;-76
2022/10/18 11:30:02;;;;;;;9.10;3.45;;;;;;;16.83;100.00;102367.13;6246207;28;20497;-76
2022/10/18 11:33:17;;;;;;;3.65;1.50;;;;;;;16.87;100.00;102368.69;6259227;28;20053;-75
2022/10/18 11:36:24;;;;;;;3.05;1.38;;;;;;;17.14;96.59;102371.63;6271010;28;20049;-76
2022/10/18 11:39:37;;;;;;;4.47;1.23;;;;;;;17.19;93.35;102361.59;6271398;28;20057;-76
2022/10/18 11:42:47;;;;;;;5.68;1.90;;;;;;;17.42;96.97;102362.13;6270864;28;20052;-75
2022/10/18 11:46:00;;;;;;;7.88;1.10;;;;;;;17.54;89.96;102369.41;6271243;28;20048;-75
2022/10/18 11:49:23;;;;;;;6.13;1.40;;;;;;;17.70;90.10;102359.59;6252288;28;20052;-76
2022/10/18 11:52:35;;;;;;;9.07;1.05;;;;;;;17.62;89.45;102361.88;6244349;28;20056;-75
2022/10/18 11:55:48;;;;;;;3.67;0.95;;;;;;;17.92;88.08;102358.38;6246011;28;20045;-75
2022/10/18 11:59:06;;;;;;;4.05;1.10;;;;;;;17.86;86.23;102367.59;6246337;28;20052;-75
2022/10/18 12:02:31;;;;;;;4.28;1.05;;;;;;;17.87;83.74;102360.47;6245843;28;20188;-76
2022/10/18 12:05:36;;;;;;;3.00;1.20;;;;;;;17.77;84.85;102351.31;6245958;28;20054;-76
2022/10/18 12:08:41;;;;;;;2.00;1.13;;;;;;;17.81;85.96;102356.38;6246564;28;20050;-76
2022/10/18 12:11:48;;;;;;;5.13;1.50;;;;;;;18.06;85.43;102354.91;6250686;28;20049;-77
2022/10/18 12:14:52;;;;;;;3.10;1.13;;;;;;;17.90;81.55;102354.97;6250588;28;20050;-77
2022/10/18 12:17:58;;;;;;;6.97;1.42;;;;;;;17.98;83.67;102360.69;6251267;28;20052;-77
2022/10/18 12:21:01;;;;;;;5.97;1.55;;;;;;;17.84;82.64;102352.66;6251181;28;20046;-76
2022/10/18 12:24:06;;;;;;;4.63;0.93;;;;;;;17.98;81.94;102355.34;6250521;28;20057;-76
2022/10/18 12:27:13;;;;;;;5.95;1.40;;;;;;;18.16;81.18;102353.41;6250365;28;20054;-76
2022/10/18 12:30:20;;;;;;;3.50;0.70;;;;;;;18.05;73.33;102355.88;6250374;28;20056;-75
2022/10/18 12:33:27;;;;;;;4.93;0.82;;;;;;;18.14;70.52;102350.84;6250502;28;20051;-72
2022/10/18 12:36:53;;;;;;;6.13;1.20;;;;;;;18.15;70.75;102357.03;6250553;28;20049;-75
2022/10/18 12:40:00;;;;;;;6.03;1.13;;;;;;;18.04;70.47;102357.69;6249826;28;20049;-75
2022/10/18 12:43:08;;;;;;;3.15;0.93;;;;;;;18.11;72.72;102355.50;6250213;28;20052;-77
2022/10/18 12:46:10;;;;;;;2.95;0.75;;;;;;;18.18;73.68;102360.38;6249915;28;20071;-76
2022/10/18 12:49:16;;;;;;;7.28;0.95;;;;;;;18.50;72.29;102357.56;6250218;28;20060;-76
2022/10/18 12:52:23;;;;;;;2.22;0.82;;;;;;;18.41;71.93;102355.47;6249734;28;20052;-77
2022/10/18 12:55:30;;;;;;;0.32;0.30;;;;;;;18.49;67.02;102362.03;6250017;28;20503;-77
2022/10/18 12:58:32;;;;;;;4.78;0.60;;;;;;;18.71;66.94;102355.41;6250125;28;20179;-76
2022/10/18 13:02:19;;;;;;;1.58;0.50;;;;;;;18.96;66.39;102357.41;6244182;28;20050;-77
2022/10/18 13:05:54;;;;;;;3.30;0.50;;;;;;;19.25;67.57;102351.06;6246006;28;20075;-76
2022/10/18 13:09:18;;;;;;;2.70;0.88;;;;;;;18.97;63.85;102351.97;6234848;28;20057;-75
2022/10/18 13:12:55;;;;;;;1.95;0.65;;;;;;;18.74;63.55;102355.22;6198148;28;20054;-75
2022/10/18 13:16:03;;;;;;;3.75;0.80;;;;;;;18.80;63.22;102367.31;6242197;28;20061;-77
2022/10/18 13:19:19;;;;;;;2.00;0.65;;;;;;;18.91;66.98;102363.03;6248813;28;20049;-75
2022/10/18 13:22:40;;;;;;;1.63;0.40;;;;;;;19.13;63.75;102353.69;6243407;28;20050;-76
2022/10/18 13:25:54;;;;;;;3.72;0.60;;;;;;;19.18;65.01;102354.25;6248648;28;20516;-76
2022/10/18 13:29:02;;;;;;;1.95;0.68;;;;;;;19.04;62.56;102367.59;6249310;28;20056;-76
2022/10/18 13:32:15;;;;;;;1.40;0.57;;;;;;;18.68;61.17;102369.75;6249087;28;20050;-75
2022/10/18 13:35:54;;;;;;;1.88;0.90;;;;;;;19.03;63.20;102380.06;6248718;28;20057;-76
2022/10/18 13:39:03;;;;;;;3.75;0.75;;;;;;;18.75;62.36;102379.09;6249067;28;20056;-75
2022/10/18 13:42:30;;;;;;;1.63;0.85;;;;;;;18.78;62.88;102375.41;6248558;28;20555;-75
2022/10/18 13:45:54;;;;;;;1.80;1.00;;;;;;;18.72;64.27;102386.44;6248665;28;20049;-75
2022/10/18 13:48:59;;;;;;;1.30;0.80;;;;;;;18.74;63.35;102385.38;6248925;28;20053;-76
2022/10/18 13:52:08;;;;;;;1.88;0.50;;;;;;;18.71;63.81;102390.91;6248385;28;20061;-76
2022/10/18 13:55:32;;;;;;;6.77;0.67;;;;;;;18.64;62.43;102386.88;6248506;28;20054;-76
2022/10/18 13:58:43;;;;;;;4.63;0.70;;;;;;;18.33;66.26;102395.84;6248362;28;20060;-76
2022/10/18 14:02:01;;;;;;;1.38;0.70;;;;;;;18.50;66.94;102401.03;6249455;28;20500;-77
2022/10/18 14:05:16;;;;;;;4.25;1.02;;;;;;;17.94;70.33;102401.72;6247912;28;20045;-77